createdAt,value
2022-11-24T00:00:36.727Z,23.05
2022-11-24T00:05:38.984Z,21.90
2022-11-24T00:10:41.033Z,21.40
2022-11-24T00:15:43.145Z,20.23
2022-11-24T00:20:52.148Z,19.17
2022-11-24T00:25:54.188Z,21.80
2022-11-24T00:30:56.288Z,16.65
2022-11-24T00:35:59.966Z,21.90
2022-11-24T00:41:02.112Z,18.58
2022-11-24T00:46:04.582Z,16.42
2022-11-24T00:51:09.287Z,18.48
2022-11-24T00:56:12.394Z,21.25
2022-11-24T01:01:20.725Z,18.98
2022-11-24T01:06:26.134Z,16.17
2022-11-24T01:12:05.402Z,19.63
2022-11-24T01:17:07.491Z,16.42
2022-11-24T01:22:09.688Z,11.27
2022-11-24T01:27:11.788Z,16.95
2022-11-24T01:32:13.838Z,19.80
2022-11-24T01:37:15.891Z,16.75
2022-11-24T01:42:17.923Z,19.08
2022-11-24T01:47:33.944Z,18.23
2022-11-24T01:52:47.572Z,21.80
2022-11-24T01:58:07.711Z,21.90
2022-11-24T02:03:14.344Z,18.67
2022-11-24T02:08:27.459Z,20.58
2022-11-24T02:13:30.087Z,15.85
2022-11-24T02:18:32.161Z,22.60
2022-11-24T02:23:36.999Z,18.38
2022-11-24T02:28:39.202Z,19.20
2022-11-24T02:33:41.280Z,21.55
2022-11-24T02:38:43.500Z,15.55
2022-11-24T02:43:54.690Z,19.05
2022-11-24T02:48:56.969Z,15.80
2022-11-24T02:53:58.989Z,24.63
2022-11-24T02:59:01.579Z,17.88
2022-11-24T03:04:03.856Z,18.35
2022-11-24T03:09:06.437Z,14.70
2022-11-24T03:14:08.724Z,24.52
2022-11-24T03:19:10.773Z,17.70
2022-11-24T03:24:12.831Z,21.40
2022-11-24T03:29:15.099Z,22.20
2022-11-24T03:34:17.161Z,24.50
2022-11-24T03:39:19.206Z,22.65
2022-11-24T03:44:21.381Z,25.90
2022-11-24T03:49:23.504Z,16.17
2022-11-24T03:54:25.581Z,19.00
2022-11-24T03:59:27.683Z,13.30
2022-11-24T04:04:29.754Z,16.73
2022-11-24T04:09:31.862Z,18.60
2022-11-24T04:14:34.083Z,16.95
2022-11-24T04:19:36.284Z,11.10
2022-11-24T04:24:38.343Z,7.07
2022-11-24T04:29:40.455Z,11.93
2022-11-24T04:34:42.853Z,8.55
2022-11-24T04:39:46.229Z,15.40
2022-11-24T04:44:48.320Z,6.88
2022-11-24T04:49:50.447Z,9.75
2022-11-24T04:54:52.802Z,7.05
2022-11-24T04:59:55.156Z,7.07
2022-11-24T05:04:57.310Z,8.77
2022-11-24T05:10:17.965Z,9.30
2022-11-24T05:15:20.007Z,8.50
2022-11-24T05:20:22.013Z,9.43
2022-11-24T05:25:24.054Z,9.05
2022-11-24T05:30:26.013Z,11.48
2022-11-24T05:35:28.269Z,10.30
2022-11-24T05:40:31.415Z,9.10
2022-11-24T05:45:33.583Z,8.60
2022-11-24T05:50:36.021Z,6.95
2022-11-24T05:55:39.028Z,5.53
2022-11-24T06:00:41.024Z,8.07
2022-11-24T06:05:46.887Z,7.38
2022-11-24T06:10:48.951Z,6.57
2022-11-24T06:15:51.017Z,6.72
2022-11-24T06:21:09.899Z,9.05
2022-11-24T06:26:13.062Z,10.48
2022-11-24T06:31:16.163Z,6.47
2022-11-24T06:36:18.260Z,10.13
2022-11-24T06:41:20.384Z,12.70
2022-11-24T06:46:22.806Z,13.00
2022-11-24T06:51:26.331Z,10.20
2022-11-24T06:56:28.323Z,7.15
2022-11-24T07:01:30.575Z,11.60
2022-11-24T07:06:32.660Z,15.45
2022-11-24T07:11:34.801Z,14.27
2022-11-24T07:16:37.128Z,12.70
2022-11-24T07:21:39.163Z,9.82
2022-11-24T07:26:41.156Z,9.35
2022-11-24T07:31:43.376Z,14.38
2022-11-24T07:36:45.528Z,10.88
2022-11-24T07:41:47.579Z,12.52
2022-11-24T07:46:51.237Z,12.98
2022-11-24T07:51:53.221Z,9.02
2022-11-24T07:56:55.506Z,9.30
2022-11-24T08:01:57.564Z,12.18
2022-11-24T08:06:59.635Z,6.95
2022-11-24T08:12:01.650Z,7.45
2022-11-24T08:17:03.781Z,11.65
2022-11-24T08:22:05.855Z,9.25
2022-11-24T08:27:07.813Z,11.30
2022-11-24T08:32:10.678Z,14.40
2022-11-24T08:37:12.779Z,9.77
2022-11-24T08:42:14.796Z,13.52
2022-11-24T08:47:16.811Z,10.55
2022-11-24T08:52:18.802Z,16.92
2022-11-24T08:57:22.025Z,17.85
2022-11-24T09:02:24.139Z,10.95
2022-11-24T09:07:26.175Z,12.30
2022-11-24T09:12:28.260Z,17.40
2022-11-24T09:17:30.319Z,14.73
2022-11-24T09:22:32.434Z,16.63
2022-11-24T09:27:35.371Z,10.63
2022-11-24T09:32:37.576Z,15.15
2022-11-24T09:37:39.626Z,14.70
2022-11-24T09:42:58.013Z,13.52
2022-11-24T09:48:27.719Z,19.88
2022-11-24T09:53:35.875Z,24.05
2022-11-24T09:58:50.588Z,20.42
2022-11-24T10:03:53.896Z,16.00
2022-11-24T10:09:23.637Z,17.75
2022-11-24T10:14:54.987Z,21.33
2022-11-24T10:20:09.659Z,22.08
2022-11-24T10:25:18.953Z,20.42
2022-11-24T10:30:23.789Z,18.80
2022-11-24T10:35:35.509Z,16.98
2022-11-24T10:40:57.126Z,17.80
2022-11-24T10:46:11.130Z,14.93
2022-11-24T10:51:42.638Z,21.23
2022-11-24T10:56:46.482Z,13.75
2022-11-24T11:01:48.532Z,23.67
2022-11-24T11:06:50.687Z,16.50
2022-11-24T11:11:53.607Z,24.73
2022-11-24T11:16:57.711Z,18.10
2022-11-24T11:22:03.363Z,13.15
2022-11-24T11:27:17.414Z,17.85
2022-11-24T11:37:48.567Z,22.33
2022-11-24T11:43:03.605Z,18.70
2022-11-24T11:48:15.845Z,18.60
2022-11-24T11:53:46.379Z,18.08
2022-11-24T11:59:04.173Z,14.02
2022-11-24T12:04:35.884Z,11.70
2022-11-24T12:10:05.969Z,12.75
2022-11-24T12:15:31.385Z,19.65
2022-11-24T12:20:59.670Z,15.00
2022-11-24T12:26:09.322Z,18.02
2022-11-24T12:31:29.790Z,18.00
2022-11-24T12:36:56.037Z,17.67
2022-11-24T12:42:30.095Z,18.13
2022-11-24T12:47:46.948Z,16.38
2022-11-24T12:52:58.809Z,12.82
2022-11-24T12:58:14.161Z,15.57
2022-11-24T13:03:48.362Z,10.95
2022-11-24T13:08:50.725Z,16.35
2022-11-24T13:14:13.766Z,17.08
2022-11-24T13:19:21.109Z,15.23
2022-11-24T13:24:26.394Z,10.07
2022-11-24T13:29:28.703Z,11.60
2022-11-24T13:34:39.781Z,12.43
2022-11-24T13:40:22.432Z,9.65
2022-11-24T13:45:39.768Z,10.52
2022-11-24T13:50:51.555Z,10.88
2022-11-24T13:56:00.176Z,12.82
2022-11-24T14:01:30.299Z,12.50
2022-11-24T14:06:40.186Z,14.68
2022-11-24T14:11:42.307Z,11.43
2022-11-24T14:16:44.531Z,10.45
2022-11-24T14:21:46.881Z,16.40
2022-11-24T14:26:49.806Z,17.02
2022-11-24T14:31:57.510Z,13.85
2022-11-24T14:37:01.029Z,12.82
2022-11-24T14:42:23.912Z,16.55
2022-11-24T14:47:37.018Z,14.77
2022-11-24T14:52:53.034Z,13.70
2022-11-24T14:57:55.293Z,11.55
2022-11-24T15:03:00.081Z,15.43
2022-11-24T15:08:03.395Z,16.33
2022-11-24T15:13:15.189Z,19.38
2022-11-24T15:18:41.442Z,11.32
2022-11-24T15:23:45.728Z,16.88
2022-11-24T15:28:48.062Z,11.20
2022-11-24T15:33:50.242Z,17.45
2022-11-24T15:38:52.385Z,13.77
2022-11-24T15:43:59.241Z,22.23
2022-11-24T15:49:01.356Z,14.98
2022-11-24T15:54:03.579Z,13.45
2022-11-24T15:59:05.817Z,14.77
2022-11-24T16:04:08.326Z,14.70
2022-11-24T16:09:15.033Z,18.38
2022-11-24T16:14:17.196Z,17.05
2022-11-24T16:19:19.393Z,19.55
2022-11-24T16:24:21.446Z,23.00
2022-11-24T16:29:24.199Z,18.98
2022-11-24T16:34:26.292Z,26.55
2022-11-24T16:39:28.363Z,18.00
2022-11-24T16:44:30.634Z,18.92
2022-11-24T16:49:32.835Z,25.10
2022-11-24T16:54:35.073Z,19.77
2022-11-24T16:59:37.179Z,21.95
2022-11-24T17:04:39.529Z,22.27
2022-11-24T17:09:41.700Z,20.38
2022-11-24T17:14:52.673Z,18.20
2022-11-24T17:20:06.003Z,13.82
2022-11-24T17:25:08.738Z,16.45
2022-11-24T17:30:12.102Z,15.98
2022-11-24T17:35:14.367Z,17.70
2022-11-24T17:40:34.294Z,17.38
2022-11-24T17:45:36.470Z,15.70
2022-11-24T17:50:38.533Z,19.63
2022-11-24T17:55:40.863Z,17.65
2022-11-24T18:00:42.984Z,29.23
2022-11-24T18:05:45.311Z,19.75
2022-11-24T18:10:47.379Z,16.60
2022-11-24T18:15:49.393Z,22.23
2022-11-24T18:20:55.753Z,25.15
2022-11-24T18:26:00.034Z,17.33
2022-11-24T18:31:08.331Z,13.65
2022-11-24T18:36:14.177Z,15.00
2022-11-24T18:41:16.674Z,19.15
2022-11-24T18:46:19.972Z,14.80
2022-11-24T18:51:23.009Z,24.30
2022-11-24T18:56:26.213Z,22.30
2022-11-24T19:01:29.349Z,17.55
2022-11-24T19:06:34.560Z,17.15
2022-11-24T19:11:38.611Z,17.77
2022-11-24T19:16:41.364Z,15.13
2022-11-24T19:21:44.008Z,20.52
2022-11-24T19:26:46.088Z,13.45
2022-11-24T19:31:48.559Z,23.05
2022-11-24T19:36:50.594Z,23.15
2022-11-24T19:41:53.202Z,19.23
2022-11-24T19:46:55.226Z,21.48
2022-11-24T19:51:57.239Z,18.50
2022-11-24T19:56:59.396Z,16.02
2022-11-24T20:02:02.640Z,17.58
2022-11-24T20:07:05.208Z,22.80
2022-11-24T20:12:07.312Z,16.25
2022-11-24T20:17:09.388Z,15.25
2022-11-24T20:22:11.431Z,17.65
2022-11-24T20:27:13.418Z,13.93
2022-11-24T20:32:19.468Z,14.95
2022-11-24T20:37:22.578Z,16.38
2022-11-24T20:42:24.872Z,18.48
2022-11-24T20:47:26.958Z,10.98
2022-11-24T20:52:29.055Z,15.30
2022-11-24T20:57:31.018Z,17.88
2022-11-24T21:02:33.226Z,12.82
2022-11-24T21:07:35.323Z,22.42
2022-11-24T21:12:37.463Z,16.40
2022-11-24T21:17:39.567Z,24.73
2022-11-24T21:22:41.717Z,19.98
2022-11-24T21:27:43.735Z,18.67
2022-11-24T21:32:46.430Z,16.27
2022-11-24T21:37:48.481Z,15.52
2022-11-24T21:42:50.591Z,16.30
2022-11-24T21:47:52.577Z,21.83
2022-11-24T21:52:57.109Z,15.98
2022-11-24T21:58:06.091Z,16.42
2022-11-24T22:03:08.287Z,19.75
2022-11-24T22:08:10.340Z,11.98
2022-11-24T22:13:12.459Z,16.02
2022-11-24T22:18:14.497Z,20.40
2022-11-24T22:23:16.613Z,17.90
2022-11-24T22:28:18.666Z,22.00
2022-11-24T22:33:20.669Z,17.75
2022-11-24T22:38:22.790Z,16.10
2022-11-24T22:43:25.154Z,19.52
2022-11-24T22:48:27.176Z,16.25
2022-11-24T22:53:29.281Z,15.85
2022-11-24T22:58:33.036Z,18.38
2022-11-24T23:03:35.812Z,20.30
2022-11-24T23:08:38.539Z,18.67
2022-11-24T23:13:41.135Z,22.05
2022-11-24T23:18:44.486Z,26.00
2022-11-24T23:23:48.034Z,30.05
2022-11-24T23:28:50.640Z,21.83
2022-11-24T23:33:53.771Z,19.48
2022-11-24T23:38:56.193Z,29.15
2022-11-24T23:43:58.532Z,20.58
2022-11-24T23:49:00.595Z,13.43
2022-11-24T23:54:07.706Z,19.67
2022-11-24T23:59:11.959Z,19.80
